sensor_id;sensor_type;location;lat;lon;timestamp;P1;durP1;ratioP1;P2;durP2;ratioP2
39448;SDS011;25151;45.566;9.382;2023-05-14T00:01:32;2.10;;;0.70;;
39448;SDS011;25151;45.566;9.382;2023-05-14T00:04:32;1.05;;;0.73;;
39448;SDS011;25151;45.566;9.382;2023-05-14T00:07:33;1.50;;;0.80;;
39448;SDS011;25151;45.566;9.382;2023-05-14T00:10:34;1.70;;;0.80;;
39448;SDS011;25151;45.566;9.382;2023-05-14T00:13:35;2.60;;;1.17;;
39448;SDS011;25151;45.566;9.382;2023-05-14T00:16:36;3.35;;;1.02;;
39448;SDS011;25151;45.566;9.382;2023-05-14T00:19:37;1.50;;;0.90;;
39448;SDS011;25151;45.566;9.382;2023-05-14T00:22:41;2.40;;;0.73;;
39448;SDS011;25151;45.566;9.382;2023-05-14T00:25:42;2.63;;;1.00;;
39448;SDS011;25151;45.566;9.382;2023-05-14T00:28:43;2.47;;;0.80;;
39448;SDS011;25151;45.566;9.382;2023-05-14T00:31:44;1.63;;;0.80;;
39448;SDS011;25151;45.566;9.382;2023-05-14T00:34:44;2.30;;;0.90;;
39448;SDS011;25151;45.566;9.382;2023-05-14T00:37:45;1.27;;;0.80;;
39448;SDS011;25151;45.566;9.382;2023-05-14T00:40:46;1.85;;;0.75;;
39448;SDS011;25151;45.566;9.382;2023-05-14T00:43:51;1.90;;;1.70;;
39448;SDS011;25151;45.566;9.382;2023-05-14T00:46:52;2.55;;;0.80;;
39448;SDS011;25151;45.566;9.382;2023-05-14T00:49:53;1.85;;;1.10;;
39448;SDS011;25151;45.566;9.382;2023-05-14T00:52:54;2.00;;;0.82;;
39448;SDS011;25151;45.566;9.382;2023-05-14T00:55:55;1.88;;;0.70;;
39448;SDS011;25151;45.566;9.382;2023-05-14T00:58:56;1.50;;;0.60;;
39448;SDS011;25151;45.566;9.382;2023-05-14T01:01:57;1.60;;;0.70;;
39448;SDS011;25151;45.566;9.382;2023-05-14T01:04:58;2.88;;;0.77;;
39448;SDS011;25151;45.566;9.382;2023-05-14T01:08:19;0.60;;;0.52;;
39448;SDS011;25151;45.566;9.382;2023-05-14T01:17:54;2.28;;;1.00;;
39448;SDS011;25151;45.566;9.382;2023-05-14T01:20:58;1.20;;;0.73;;
39448;SDS011;25151;45.566;9.382;2023-05-14T01:23:59;2.53;;;0.70;;
39448;SDS011;25151;45.566;9.382;2023-05-14T01:27:09;2.17;;;0.65;;
39448;SDS011;25151;45.566;9.382;2023-05-14T01:33:33;0.68;;;0.55;;
39448;SDS011;25151;45.566;9.382;2023-05-14T01:36:35;3.15;;;0.90;;
39448;SDS011;25151;45.566;9.382;2023-05-14T01:39:36;2.28;;;0.73;;
39448;SDS011;25151;45.566;9.382;2023-05-14T01:42:37;1.65;;;0.70;;
39448;SDS011;25151;45.566;9.382;2023-05-14T01:45:38;2.05;;;0.98;;
39448;SDS011;25151;45.566;9.382;2023-05-14T01:48:39;1.20;;;0.77;;
39448;SDS011;25151;45.566;9.382;2023-05-14T01:51:40;1.40;;;0.60;;
39448;SDS011;25151;45.566;9.382;2023-05-14T01:54:41;1.40;;;0.90;;
39448;SDS011;25151;45.566;9.382;2023-05-14T01:57:42;1.35;;;0.70;;
39448;SDS011;25151;45.566;9.382;2023-05-14T02:00:43;1.23;;;0.70;;
39448;SDS011;25151;45.566;9.382;2023-05-14T02:03:44;2.28;;;0.98;;
39448;SDS011;25151;45.566;9.382;2023-05-14T02:06:45;1.50;;;0.90;;
39448;SDS011;25151;45.566;9.382;2023-05-14T02:09:45;0.93;;;0.68;;
39448;SDS011;25151;45.566;9.382;2023-05-14T02:12:47;1.20;;;0.70;;
39448;SDS011;25151;45.566;9.382;2023-05-14T02:15:49;3.97;;;1.08;;
39448;SDS011;25151;45.566;9.382;2023-05-14T02:18:50;1.10;;;0.88;;
39448;SDS011;25151;45.566;9.382;2023-05-14T02:21:50;0.60;;;0.60;;
39448;SDS011;25151;45.566;9.382;2023-05-14T02:24:51;1.00;;;0.80;;
39448;SDS011;25151;45.566;9.382;2023-05-14T02:27:52;1.05;;;0.70;;
39448;SDS011;25151;45.566;9.382;2023-05-14T02:30:57;1.52;;;0.75;;
39448;SDS011;25151;45.566;9.382;2023-05-14T02:34:01;1.55;;;0.88;;
39448;SDS011;25151;45.566;9.382;2023-05-14T02:37:03;2.08;;;0.80;;
39448;SDS011;25151;45.566;9.382;2023-05-14T02:40:04;1.23;;;0.65;;
39448;SDS011;25151;45.566;9.382;2023-05-14T02:43:05;2.35;;;0.80;;
39448;SDS011;25151;45.566;9.382;2023-05-14T02:46:06;1.00;;;0.60;;
39448;SDS011;25151;45.566;9.382;2023-05-14T02:49:07;1.23;;;0.73;;
39448;SDS011;25151;45.566;9.382;2023-05-14T02:52:08;1.23;;;0.77;;
39448;SDS011;25151;45.566;9.382;2023-05-14T02:55:08;0.98;;;0.70;;
39448;SDS011;25151;45.566;9.382;2023-05-14T02:58:10;2.40;;;0.68;;
39448;SDS011;25151;45.566;9.382;2023-05-14T03:01:12;1.15;;;0.55;;
39448;SDS011;25151;45.566;9.382;2023-05-14T03:04:13;0.82;;;0.50;;
39448;SDS011;25151;45.566;9.382;2023-05-14T03:07:15;2.45;;;0.90;;
39448;SDS011;25151;45.566;9.382;2023-05-14T03:10:16;1.38;;;0.88;;
39448;SDS011;25151;45.566;9.382;2023-05-14T03:13:17;0.98;;;0.60;;
39448;SDS011;25151;45.566;9.382;2023-05-14T03:16:19;1.70;;;0.88;;
39448;SDS011;25151;45.566;9.382;2023-05-14T03:19:20;2.50;;;0.70;;
39448;SDS011;25151;45.566;9.382;2023-05-14T03:22:21;2.80;;;1.00;;
39448;SDS011;25151;45.566;9.382;2023-05-14T03:25:22;2.88;;;0.88;;
39448;SDS011;25151;45.566;9.382;2023-05-14T03:28:24;1.10;;;0.63;;
39448;SDS011;25151;45.566;9.382;2023-05-14T03:31:27;0.85;;;0.70;;
39448;SDS011;25151;45.566;9.382;2023-05-14T03:34:29;1.00;;;0.70;;
39448;SDS011;25151;45.566;9.382;2023-05-14T03:37:29;0.98;;;0.50;;
39448;SDS011;25151;45.566;9.382;2023-05-14T03:40:30;1.30;;;0.80;;
39448;SDS011;25151;45.566;9.382;2023-05-14T03:43:31;0.85;;;0.85;;
39448;SDS011;25151;45.566;9.382;2023-05-14T03:46:32;1.55;;;0.88;;
39448;SDS011;25151;45.566;9.382;2023-05-14T03:49:32;2.15;;;0.85;;
39448;SDS011;25151;45.566;9.382;2023-05-14T03:52:34;0.73;;;0.63;;
39448;SDS011;25151;45.566;9.382;2023-05-14T03:55:36;1.20;;;0.70;;
39448;SDS011;25151;45.566;9.382;2023-05-14T03:58:38;1.08;;;0.77;;
39448;SDS011;25151;45.566;9.382;2023-05-14T04:01:39;0.82;;;0.60;;
39448;SDS011;25151;45.566;9.382;2023-05-14T04:04:40;1.20;;;0.88;;
39448;SDS011;25151;45.566;9.382;2023-05-14T04:07:41;3.50;;;0.80;;
39448;SDS011;25151;45.566;9.382;2023-05-14T04:10:42;1.50;;;0.82;;
39448;SDS011;25151;45.566;9.382;2023-05-14T04:13:43;1.83;;;0.80;;
39448;SDS011;25151;45.566;9.382;2023-05-14T04:16:44;0.80;;;0.60;;
39448;SDS011;25151;45.566;9.382;2023-05-14T04:19:44;0.80;;;0.70;;
39448;SDS011;25151;45.566;9.382;2023-05-14T04:22:45;2.08;;;0.88;;
39448;SDS011;25151;45.566;9.382;2023-05-14T04:25:46;1.05;;;0.70;;
39448;SDS011;25151;45.566;9.382;2023-05-14T04:28:48;1.30;;;0.90;;
39448;SDS011;25151;45.566;9.382;2023-05-14T04:31:49;0.98;;;0.60;;
39448;SDS011;25151;45.566;9.382;2023-05-14T04:34:49;1.88;;;0.73;;
39448;SDS011;25151;45.566;9.382;2023-05-14T04:37:50;1.70;;;0.90;;
39448;SDS011;25151;45.566;9.382;2023-05-14T04:40:51;1.02;;;0.70;;
39448;SDS011;25151;45.566;9.382;2023-05-14T04:43:54;2.25;;;0.50;;
39448;SDS011;25151;45.566;9.382;2023-05-14T04:46:56;1.48;;;0.75;;
39448;SDS011;25151;45.566;9.382;2023-05-14T04:49:57;1.15;;;0.80;;
39448;SDS011;25151;45.566;9.382;2023-05-14T04:52:58;3.08;;;0.60;;
39448;SDS011;25151;45.566;9.382;2023-05-14T04:55:58;1.13;;;0.50;;
39448;SDS011;25151;45.566;9.382;2023-05-14T04:58:59;1.88;;;0.93;;
39448;SDS011;25151;45.566;9.382;2023-05-14T05:02:00;0.50;;;0.50;;
39448;SDS011;25151;45.566;9.382;2023-05-14T05:05:01;1.27;;;0.85;;
39448;SDS011;25151;45.566;9.382;2023-05-14T05:08:04;1.05;;;0.70;;
39448;SDS011;25151;45.566;9.382;2023-05-14T05:11:05;1.20;;;0.70;;
39448;SDS011;25151;45.566;9.382;2023-05-14T05:14:06;1.35;;;0.57;;
39448;SDS011;25151;45.566;9.382;2023-05-14T05:17:07;0.82;;;0.73;;
39448;SDS011;25151;45.566;9.382;2023-05-14T05:20:08;1.63;;;0.68;;
39448;SDS011;25151;45.566;9.382;2023-05-14T05:23:10;1.08;;;0.68;;
39448;SDS011;25151;45.566;9.382;2023-05-14T05:26:10;1.15;;;0.70;;
39448;SDS011;25151;45.566;9.382;2023-05-14T05:29:11;1.98;;;0.75;;
39448;SDS011;25151;45.566;9.382;2023-05-14T05:32:12;4.70;;;0.70;;
39448;SDS011;25151;45.566;9.382;2023-05-14T05:35:12;1.23;;;0.70;;
39448;SDS011;25151;45.566;9.382;2023-05-14T05:38:13;1.27;;;0.70;;
39448;SDS011;25151;45.566;9.382;2023-05-14T05:41:16;1.42;;;0.65;;
39448;SDS011;25151;45.566;9.382;2023-05-14T05:44:17;2.10;;;0.70;;
39448;SDS011;25151;45.566;9.382;2023-05-14T05:47:17;2.35;;;0.82;;
39448;SDS011;25151;45.566;9.382;2023-05-14T05:50:18;3.35;;;0.70;;
39448;SDS011;25151;45.566;9.382;2023-05-14T05:53:19;1.13;;;0.63;;
39448;SDS011;25151;45.566;9.382;2023-05-14T05:56:20;1.58;;;0.70;;
39448;SDS011;25151;45.566;9.382;2023-05-14T05:59:21;3.65;;;0.75;;
39448;SDS011;25151;45.566;9.382;2023-05-14T06:02:22;1.90;;;0.70;;
39448;SDS011;25151;45.566;9.382;2023-05-14T06:05:24;1.48;;;0.60;;
39448;SDS011;25151;45.566;9.382;2023-05-14T06:08:25;2.17;;;0.77;;
39448;SDS011;25151;45.566;9.382;2023-05-14T06:11:25;1.10;;;0.60;;
39448;SDS011;25151;45.566;9.382;2023-05-14T06:14:26;2.58;;;0.50;;
39448;SDS011;25151;45.566;9.382;2023-05-14T06:17:27;5.90;;;1.10;;
39448;SDS011;25151;45.566;9.382;2023-05-14T06:20:29;7.85;;;2.05;;
39448;SDS011;25151;45.566;9.382;2023-05-14T06:23:30;2.03;;;1.13;;
39448;SDS011;25151;45.566;9.382;2023-05-14T06:26:32;4.90;;;1.67;;
39448;SDS011;25151;45.566;9.382;2023-05-14T06:29:33;8.68;;;1.90;;
39448;SDS011;25151;45.566;9.382;2023-05-14T06:32:33;6.53;;;2.63;;
39448;SDS011;25151;45.566;9.382;2023-05-14T06:35:34;5.93;;;2.50;;
39448;SDS011;25151;45.566;9.382;2023-05-14T06:38:36;6.82;;;3.28;;
39448;SDS011;25151;45.566;9.382;2023-05-14T06:41:36;11.93;;;3.33;;
39448;SDS011;25151;45.566;9.382;2023-05-14T06:44:37;12.65;;;3.03;;
39448;SDS011;25151;45.566;9.382;2023-05-14T06:47:38;8.75;;;3.63;;
39448;SDS011;25151;45.566;9.382;2023-05-14T06:50:39;5.95;;;2.47;;
39448;SDS011;25151;45.566;9.382;2023-05-14T06:53:40;10.35;;;2.53;;
39448;SDS011;25151;45.566;9.382;2023-05-14T06:56:40;10.70;;;3.08;;
39448;SDS011;25151;45.566;9.382;2023-05-14T06:59:41;8.38;;;2.75;;
39448;SDS011;25151;45.566;9.382;2023-05-14T07:02:42;8.50;;;2.53;;
39448;SDS011;25151;45.566;9.382;2023-05-14T07:05:43;6.78;;;2.90;;
39448;SDS011;25151;45.566;9.382;2023-05-14T07:08:45;10.02;;;2.83;;
39448;SDS011;25151;45.566;9.382;2023-05-14T07:11:46;13.38;;;2.60;;
39448;SDS011;25151;45.566;9.382;2023-05-14T07:14:47;12.80;;;3.08;;
39448;SDS011;25151;45.566;9.382;2023-05-14T07:17:47;7.97;;;2.53;;
39448;SDS011;25151;45.566;9.382;2023-05-14T07:20:48;8.93;;;2.55;;
39448;SDS011;25151;45.566;9.382;2023-05-14T07:23:49;10.30;;;2.72;;
39448;SDS011;25151;45.566;9.382;2023-05-14T07:26:50;8.55;;;2.45;;
39448;SDS011;25151;45.566;9.382;2023-05-14T07:29:51;8.60;;;2.65;;
39448;SDS011;25151;45.566;9.382;2023-05-14T07:32:51;9.40;;;2.72;;
39448;SDS011;25151;45.566;9.382;2023-05-14T07:35:52;4.53;;;2.28;;
39448;SDS011;25151;45.566;9.382;2023-05-14T07:38:53;8.43;;;2.50;;
39448;SDS011;25151;45.566;9.382;2023-05-14T07:41:56;5.65;;;2.15;;
39448;SDS011;25151;45.566;9.382;2023-05-14T07:44:57;8.23;;;2.35;;
39448;SDS011;25151;45.566;9.382;2023-05-14T07:48:02;6.97;;;2.50;;
39448;SDS011;25151;45.566;9.382;2023-05-14T07:51:03;7.65;;;2.60;;
39448;SDS011;25151;45.566;9.382;2023-05-14T07:54:04;6.53;;;2.08;;
39448;SDS011;25151;45.566;9.382;2023-05-14T07:57:05;6.00;;;2.72;;
39448;SDS011;25151;45.566;9.382;2023-05-14T08:00:06;7.63;;;2.22;;
39448;SDS011;25151;45.566;9.382;2023-05-14T08:03:08;7.75;;;2.28;;
39448;SDS011;25151;45.566;9.382;2023-05-14T08:06:08;7.53;;;2.67;;
39448;SDS011;25151;45.566;9.382;2023-05-14T08:09:10;6.13;;;1.90;;
39448;SDS011;25151;45.566;9.382;2023-05-14T08:12:10;4.53;;;1.77;;
39448;SDS011;25151;45.566;9.382;2023-05-14T08:15:14;8.05;;;1.92;;
39448;SDS011;25151;45.566;9.382;2023-05-14T08:18:15;7.13;;;1.90;;
39448;SDS011;25151;45.566;9.382;2023-05-14T08:21:16;7.93;;;2.70;;
39448;SDS011;25151;45.566;9.382;2023-05-14T08:24:17;4.88;;;2.20;;
39448;SDS011;25151;45.566;9.382;2023-05-14T08:27:18;4.10;;;1.98;;
39448;SDS011;25151;45.566;9.382;2023-05-14T08:30:19;4.82;;;1.52;;
39448;SDS011;25151;45.566;9.382;2023-05-14T08:33:20;4.30;;;1.77;;
39448;SDS011;25151;45.566;9.382;2023-05-14T08:36:22;7.50;;;2.50;;
39448;SDS011;25151;45.566;9.382;2023-05-14T08:39:23;5.72;;;2.08;;
39448;SDS011;25151;45.566;9.382;2023-05-14T08:42:29;4.30;;;2.10;;
39448;SDS011;25151;45.566;9.382;2023-05-14T08:45:39;6.50;;;1.95;;
39448;SDS011;25151;45.566;9.382;2023-05-14T08:48:41;4.80;;;1.70;;
39448;SDS011;25151;45.566;9.382;2023-05-14T08:51:43;5.43;;;2.05;;
39448;SDS011;25151;45.566;9.382;2023-05-14T08:54:47;6.53;;;1.38;;
39448;SDS011;25151;45.566;9.382;2023-05-14T08:57:50;4.80;;;1.48;;
39448;SDS011;25151;45.566;9.382;2023-05-14T09:00:52;6.63;;;1.20;;
39448;SDS011;25151;45.566;9.382;2023-05-14T09:03:53;3.50;;;1.58;;
39448;SDS011;25151;45.566;9.382;2023-05-14T09:06:54;8.07;;;1.75;;
39448;SDS011;25151;45.566;9.382;2023-05-14T09:09:58;4.57;;;1.60;;
39448;SDS011;25151;45.566;9.382;2023-05-14T09:13:01;4.60;;;1.40;;
39448;SDS011;25151;45.566;9.382;2023-05-14T09:16:02;3.53;;;1.65;;
39448;SDS011;25151;45.566;9.382;2023-05-14T09:19:04;4.43;;;1.50;;
39448;SDS011;25151;45.566;9.382;2023-05-14T09:22:12;6.35;;;1.58;;
39448;SDS011;25151;45.566;9.382;2023-05-14T09:25:16;4.32;;;1.55;;
39448;SDS011;25151;45.566;9.382;2023-05-14T09:28:17;2.88;;;1.20;;
39448;SDS011;25151;45.566;9.382;2023-05-14T09:31:20;4.32;;;1.40;;
39448;SDS011;25151;45.566;9.382;2023-05-14T09:34:25;4.45;;;1.40;;
39448;SDS011;25151;45.566;9.382;2023-05-14T09:37:27;3.97;;;1.40;;
39448;SDS011;25151;45.566;9.382;2023-05-14T09:40:27;4.65;;;1.25;;
39448;SDS011;25151;45.566;9.382;2023-05-14T09:43:29;3.25;;;1.48;;
39448;SDS011;25151;45.566;9.382;2023-05-14T09:46:33;2.00;;;0.93;;
39448;SDS011;25151;45.566;9.382;2023-05-14T09:49:33;3.92;;;1.40;;
39448;SDS011;25151;45.566;9.382;2023-05-14T09:52:34;3.58;;;1.00;;
39448;SDS011;25151;45.566;9.382;2023-05-14T09:55:36;3.03;;;1.40;;
39448;SDS011;25151;45.566;9.382;2023-05-14T09:58:38;3.05;;;1.40;;
39448;SDS011;25151;45.566;9.382;2023-05-14T10:01:38;5.07;;;1.05;;
39448;SDS011;25151;45.566;9.382;2023-05-14T10:04:42;1.63;;;1.00;;
39448;SDS011;25151;45.566;9.382;2023-05-14T10:07:47;2.00;;;0.95;;
39448;SDS011;25151;45.566;9.382;2023-05-14T10:10:51;4.18;;;1.10;;
39448;SDS011;25151;45.566;9.382;2023-05-14T10:17:20;4.40;;;1.50;;
39448;SDS011;25151;45.566;9.382;2023-05-14T10:20:23;4.95;;;1.20;;
39448;SDS011;25151;45.566;9.382;2023-05-14T10:23:26;3.35;;;1.50;;
39448;SDS011;25151;45.566;9.382;2023-05-14T10:26:26;4.90;;;1.67;;
39448;SDS011;25151;45.566;9.382;2023-05-14T10:29:34;4.97;;;1.80;;
39448;SDS011;25151;45.566;9.382;2023-05-14T10:32:36;4.57;;;1.50;;
39448;SDS011;25151;45.566;9.382;2023-05-14T10:38:56;5.05;;;1.80;;
39448;SDS011;25151;45.566;9.382;2023-05-14T10:41:57;4.65;;;1.83;;
39448;SDS011;25151;45.566;9.382;2023-05-14T10:45:00;5.35;;;1.95;;
39448;SDS011;25151;45.566;9.382;2023-05-14T10:48:05;4.47;;;2.05;;
39448;SDS011;25151;45.566;9.382;2023-05-14T10:51:06;10.60;;;2.00;;
39448;SDS011;25151;45.566;9.382;2023-05-14T10:54:09;7.05;;;2.40;;
39448;SDS011;25151;45.566;9.382;2023-05-14T10:57:11;5.22;;;1.95;;
39448;SDS011;25151;45.566;9.382;2023-05-14T11:00:13;6.18;;;1.80;;
39448;SDS011;25151;45.566;9.382;2023-05-14T11:03:14;7.10;;;1.75;;
39448;SDS011;25151;45.566;9.382;2023-05-14T11:06:15;6.45;;;2.22;;
39448;SDS011;25151;45.566;9.382;2023-05-14T11:09:16;6.43;;;1.50;;
39448;SDS011;25151;45.566;9.382;2023-05-14T11:12:17;3.85;;;1.50;;
39448;SDS011;25151;45.566;9.382;2023-05-14T11:15:23;5.88;;;1.23;;
39448;SDS011;25151;45.566;9.382;2023-05-14T11:18:29;3.58;;;1.75;;
39448;SDS011;25151;45.566;9.382;2023-05-14T11:21:30;4.72;;;1.20;;
39448;SDS011;25151;45.566;9.382;2023-05-14T11:24:34;4.18;;;1.20;;
39448;SDS011;25151;45.566;9.382;2023-05-14T11:27:37;4.68;;;1.17;;
39448;SDS011;25151;45.566;9.382;2023-05-14T11:30:38;3.15;;;1.30;;
39448;SDS011;25151;45.566;9.382;2023-05-14T11:33:38;2.78;;;1.17;;
39448;SDS011;25151;45.566;9.382;2023-05-14T11:36:39;5.53;;;1.38;;
39448;SDS011;25151;45.566;9.382;2023-05-14T11:39:48;5.45;;;1.33;;
39448;SDS011;25151;45.566;9.382;2023-05-14T11:42:50;4.72;;;1.23;;
39448;SDS011;25151;45.566;9.382;2023-05-14T11:45:52;1.58;;;0.90;;
39448;SDS011;25151;45.566;9.382;2023-05-14T11:48:53;3.05;;;1.55;;
39448;SDS011;25151;45.566;9.382;2023-05-14T11:51:57;4.30;;;1.25;;
39448;SDS011;25151;45.566;9.382;2023-05-14T11:54:58;4.78;;;1.33;;
39448;SDS011;25151;45.566;9.382;2023-05-14T11:57:59;4.75;;;1.23;;
39448;SDS011;25151;45.566;9.382;2023-05-14T12:01:02;4.20;;;1.10;;
39448;SDS011;25151;45.566;9.382;2023-05-14T12:04:03;2.60;;;0.80;;
39448;SDS011;25151;45.566;9.382;2023-05-14T12:07:07;3.25;;;1.00;;
39448;SDS011;25151;45.566;9.382;2023-05-14T12:10:10;4.22;;;1.10;;
39448;SDS011;25151;45.566;9.382;2023-05-14T12:13:13;3.45;;;1.40;;
39448;SDS011;25151;45.566;9.382;2023-05-14T12:16:15;4.82;;;1.05;;
39448;SDS011;25151;45.566;9.382;2023-05-14T12:19:17;3.28;;;1.20;;
39448;SDS011;25151;45.566;9.382;2023-05-14T12:22:20;2.85;;;0.82;;
39448;SDS011;25151;45.566;9.382;2023-05-14T12:25:21;4.70;;;0.80;;
39448;SDS011;25151;45.566;9.382;2023-05-14T12:28:24;3.97;;;0.88;;
39448;SDS011;25151;45.566;9.382;2023-05-14T12:31:27;5.43;;;1.33;;
39448;SDS011;25151;45.566;9.382;2023-05-14T12:34:28;5.35;;;0.90;;
39448;SDS011;25151;45.566;9.382;2023-05-14T12:37:29;4.93;;;1.15;;
39448;SDS011;25151;45.566;9.382;2023-05-14T12:40:30;3.58;;;1.17;;
39448;SDS011;25151;45.566;9.382;2023-05-14T12:43:30;1.88;;;1.00;;
39448;SDS011;25151;45.566;9.382;2023-05-14T12:46:31;3.65;;;1.30;;
39448;SDS011;25151;45.566;9.382;2023-05-14T12:49:33;2.97;;;1.10;;
39448;SDS011;25151;45.566;9.382;2023-05-14T12:52:33;1.10;;;0.80;;
39448;SDS011;25151;45.566;9.382;2023-05-14T12:55:34;2.80;;;1.33;;
39448;SDS011;25151;45.566;9.382;2023-05-14T12:58:35;2.30;;;0.95;;
39448;SDS011;25151;45.566;9.382;2023-05-14T13:01:35;2.28;;;1.02;;
39448;SDS011;25151;45.566;9.382;2023-05-14T13:04:38;2.13;;;1.17;;
39448;SDS011;25151;45.566;9.382;2023-05-14T13:07:40;2.25;;;1.00;;
39448;SDS011;25151;45.566;9.382;2023-05-14T13:10:41;2.92;;;1.45;;
39448;SDS011;25151;45.566;9.382;2023-05-14T13:13:43;3.97;;;1.15;;
39448;SDS011;25151;45.566;9.382;2023-05-14T13:16:43;2.95;;;0.90;;
39448;SDS011;25151;45.566;9.382;2023-05-14T13:19:44;4.15;;;1.30;;
39448;SDS011;25151;45.566;9.382;2023-05-14T13:22:46;3.67;;;1.20;;
39448;SDS011;25151;45.566;9.382;2023-05-14T13:25:46;3.17;;;0.93;;
39448;SDS011;25151;45.566;9.382;2023-05-14T13:28:47;3.40;;;1.00;;
39448;SDS011;25151;45.566;9.382;2023-05-14T13:31:48;4.10;;;1.20;;
39448;SDS011;25151;45.566;9.382;2023-05-14T13:34:50;3.20;;;1.25;;
39448;SDS011;25151;45.566;9.382;2023-05-14T13:37:50;3.70;;;1.35;;
39448;SDS011;25151;45.566;9.382;2023-05-14T13:40:51;1.77;;;1.17;;
39448;SDS011;25151;45.566;9.382;2023-05-14T13:43:51;4.25;;;1.27;;
39448;SDS011;25151;45.566;9.382;2023-05-14T13:46:52;2.63;;;1.00;;
39448;SDS011;25151;45.566;9.382;2023-05-14T13:49:53;3.33;;;1.20;;
39448;SDS011;25151;45.566;9.382;2023-05-14T13:52:57;3.67;;;1.67;;
39448;SDS011;25151;45.566;9.382;2023-05-14T13:55:58;3.97;;;1.10;;
39448;SDS011;25151;45.566;9.382;2023-05-14T13:59:00;3.95;;;1.35;;
39448;SDS011;25151;45.566;9.382;2023-05-14T14:02:01;2.35;;;1.20;;
39448;SDS011;25151;45.566;9.382;2023-05-14T14:05:02;2.28;;;1.08;;
39448;SDS011;25151;45.566;9.382;2023-05-14T14:08:03;4.03;;;1.30;;
39448;SDS011;25151;45.566;9.382;2023-05-14T14:11:03;3.38;;;0.98;;
39448;SDS011;25151;45.566;9.382;2023-05-14T14:14:05;2.80;;;1.48;;
39448;SDS011;25151;45.566;9.382;2023-05-14T14:17:05;3.33;;;1.10;;
39448;SDS011;25151;45.566;9.382;2023-05-14T14:20:08;4.82;;;1.15;;
39448;SDS011;25151;45.566;9.382;2023-05-14T14:23:09;3.90;;;1.20;;
39448;SDS011;25151;45.566;9.382;2023-05-14T14:26:10;2.55;;;1.17;;
39448;SDS011;25151;45.566;9.382;2023-05-14T14:29:10;3.00;;;1.00;;
39448;SDS011;25151;45.566;9.382;2023-05-14T14:32:11;4.95;;;1.10;;
39448;SDS011;25151;45.566;9.382;2023-05-14T14:35:13;3.25;;;1.10;;
39448;SDS011;25151;45.566;9.382;2023-05-14T14:38:15;2.83;;;1.15;;
39448;SDS011;25151;45.566;9.382;2023-05-14T14:41:15;3.15;;;1.35;;
39448;SDS011;25151;45.566;9.382;2023-05-14T14:44:16;4.10;;;1.42;;
39448;SDS011;25151;45.566;9.382;2023-05-14T14:47:16;6.90;;;2.20;;
39448;SDS011;25151;45.566;9.382;2023-05-14T14:50:17;3.03;;;1.00;;
39448;SDS011;25151;45.566;9.382;2023-05-14T14:53:19;4.32;;;1.23;;
39448;SDS011;25151;45.566;9.382;2023-05-14T14:56:20;5.05;;;1.15;;
39448;SDS011;25151;45.566;9.382;2023-05-14T14:59:21;5.40;;;1.30;;
39448;SDS011;25151;45.566;9.382;2023-05-14T15:02:21;5.82;;;1.38;;
39448;SDS011;25151;45.566;9.382;2023-05-14T15:05:22;5.45;;;0.98;;
39448;SDS011;25151;45.566;9.382;2023-05-14T15:08:23;5.35;;;1.40;;
39448;SDS011;25151;45.566;9.382;2023-05-14T15:11:27;3.35;;;1.40;;
39448;SDS011;25151;45.566;9.382;2023-05-14T15:14:28;3.60;;;1.30;;
39448;SDS011;25151;45.566;9.382;2023-05-14T15:17:29;3.10;;;1.50;;
39448;SDS011;25151;45.566;9.382;2023-05-14T15:20:31;3.70;;;1.30;;
39448;SDS011;25151;45.566;9.382;2023-05-14T15:23:31;5.53;;;1.23;;
39448;SDS011;25151;45.566;9.382;2023-05-14T15:26:32;4.85;;;1.10;;
39448;SDS011;25151;45.566;9.382;2023-05-14T15:29:33;4.93;;;1.10;;
39448;SDS011;25151;45.566;9.382;2023-05-14T15:32:34;3.22;;;1.05;;
39448;SDS011;25151;45.566;9.382;2023-05-14T15:35:34;5.43;;;1.25;;
39448;SDS011;25151;45.566;9.382;2023-05-14T15:38:35;5.55;;;1.30;;
39448;SDS011;25151;45.566;9.382;2023-05-14T15:41:36;3.90;;;1.30;;
39448;SDS011;25151;45.566;9.382;2023-05-14T15:44:36;4.30;;;1.20;;
39448;SDS011;25151;45.566;9.382;2023-05-14T15:47:37;2.92;;;1.33;;
39448;SDS011;25151;45.566;9.382;2023-05-14T15:50:39;5.00;;;1.35;;
39448;SDS011;25151;45.566;9.382;2023-05-14T15:53:41;2.28;;;0.98;;
39448;SDS011;25151;45.566;9.382;2023-05-14T15:56:42;3.53;;;1.15;;
39448;SDS011;25151;45.566;9.382;2023-05-14T15:59:43;3.60;;;1.45;;
39448;SDS011;25151;45.566;9.382;2023-05-14T16:02:44;3.13;;;1.35;;
39448;SDS011;25151;45.566;9.382;2023-05-14T16:05:45;11.52;;;1.88;;
39448;SDS011;25151;45.566;9.382;2023-05-14T16:08:45;9.40;;;2.33;;
39448;SDS011;25151;45.566;9.382;2023-05-14T16:11:46;4.75;;;1.88;;
39448;SDS011;25151;45.566;9.382;2023-05-14T16:14:47;5.72;;;1.50;;
39448;SDS011;25151;45.566;9.382;2023-05-14T16:17:48;15.13;;;2.05;;
39448;SDS011;25151;45.566;9.382;2023-05-14T16:20:50;9.20;;;2.38;;
39448;SDS011;25151;45.566;9.382;2023-05-14T16:23:52;7.28;;;1.70;;
39448;SDS011;25151;45.566;9.382;2023-05-14T16:26:53;3.65;;;1.27;;
39448;SDS011;25151;45.566;9.382;2023-05-14T16:29:56;5.72;;;1.63;;
39448;SDS011;25151;45.566;9.382;2023-05-14T16:32:57;5.20;;;1.83;;
39448;SDS011;25151;45.566;9.382;2023-05-14T16:35:58;7.57;;;1.77;;
39448;SDS011;25151;45.566;9.382;2023-05-14T16:38:59;6.72;;;1.58;;
39448;SDS011;25151;45.566;9.382;2023-05-14T16:42:00;7.68;;;2.08;;
39448;SDS011;25151;45.566;9.382;2023-05-14T16:45:01;9.30;;;1.83;;
39448;SDS011;25151;45.566;9.382;2023-05-14T16:48:03;9.32;;;2.10;;
39448;SDS011;25151;45.566;9.382;2023-05-14T16:51:04;8.35;;;1.45;;
39448;SDS011;25151;45.566;9.382;2023-05-14T16:54:04;7.78;;;1.63;;
39448;SDS011;25151;45.566;9.382;2023-05-14T16:57:05;6.72;;;2.03;;
39448;SDS011;25151;45.566;9.382;2023-05-14T17:00:06;4.72;;;1.42;;
39448;SDS011;25151;45.566;9.382;2023-05-14T17:03:09;5.70;;;1.90;;
39448;SDS011;25151;45.566;9.382;2023-05-14T17:06:10;5.45;;;2.10;;
39448;SDS011;25151;45.566;9.382;2023-05-14T17:09:10;7.93;;;2.15;;
39448;SDS011;25151;45.566;9.382;2023-05-14T17:12:11;4.18;;;1.70;;
39448;SDS011;25151;45.566;9.382;2023-05-14T17:15:13;8.68;;;2.58;;
39448;SDS011;25151;45.566;9.382;2023-05-14T17:18:13;4.43;;;1.55;;
39448;SDS011;25151;45.566;9.382;2023-05-14T17:21:14;6.13;;;2.50;;
39448;SDS011;25151;45.566;9.382;2023-05-14T17:24:15;6.22;;;1.90;;
39448;SDS011;25151;45.566;9.382;2023-05-14T17:27:16;7.00;;;2.13;;
39448;SDS011;25151;45.566;9.382;2023-05-14T17:30:17;7.32;;;1.77;;
39448;SDS011;25151;45.566;9.382;2023-05-14T17:33:17;8.30;;;2.20;;
39448;SDS011;25151;45.566;9.382;2023-05-14T17:36:18;5.45;;;1.52;;
39448;SDS011;25151;45.566;9.382;2023-05-14T17:39:19;7.75;;;1.92;;
39448;SDS011;25151;45.566;9.382;2023-05-14T17:42:20;6.20;;;2.00;;
39448;SDS011;25151;45.566;9.382;2023-05-14T17:45:22;7.00;;;2.15;;
39448;SDS011;25151;45.566;9.382;2023-05-14T17:48:25;5.18;;;1.65;;
39448;SDS011;25151;45.566;9.382;2023-05-14T17:51:26;7.40;;;1.77;;
39448;SDS011;25151;45.566;9.382;2023-05-14T17:54:27;5.20;;;2.10;;
39448;SDS011;25151;45.566;9.382;2023-05-14T17:57:28;4.60;;;1.60;;
39448;SDS011;25151;45.566;9.382;2023-05-14T18:00:30;5.13;;;1.75;;
39448;SDS011;25151;45.566;9.382;2023-05-14T18:03:32;7.00;;;2.35;;
39448;SDS011;25151;45.566;9.382;2023-05-14T18:06:32;4.75;;;1.45;;
39448;SDS011;25151;45.566;9.382;2023-05-14T18:09:33;5.57;;;2.00;;
39448;SDS011;25151;45.566;9.382;2023-05-14T18:12:34;4.68;;;1.60;;
39448;SDS011;25151;45.566;9.382;2023-05-14T18:15:35;7.60;;;1.67;;
39448;SDS011;25151;45.566;9.382;2023-05-14T18:18:37;4.13;;;1.45;;
39448;SDS011;25151;45.566;9.382;2023-05-14T18:21:40;4.03;;;1.63;;
39448;SDS011;25151;45.566;9.382;2023-05-14T18:24:56;5.80;;;1.65;;
39448;SDS011;25151;45.566;9.382;2023-05-14T18:31:36;6.03;;;2.05;;
39448;SDS011;25151;45.566;9.382;2023-05-14T18:34:42;5.68;;;1.60;;